Port Hedland, Western Australia

7:02 PM AWST on February 09, 2016 (GMT +0800)
Port Hedland International

Weather History for YPPD - February, 2014

Change the Weather History Date:

Sunday, February 9, 2014

  Actual Average Record
Temperature  
Mean Temperature 92 °F -  
Max Temperature 104 °F 97 °F - ()
Min Temperature 80 °F 77 °F - ()
Cooling Degree Days 27    
Growing Degree Days 42 (Base 50)    
Moisture  
Dew Point 77 °F    
Average Humidity 66    
Maximum Humidity 100    
Minimum Humidity 18    
Precipitation  
Precipitation 0.02 in 0.11 in - ()
Sea Level Pressure  
Sea Level Pressure 29.51 in    
Wind  
Wind Speed 8 mph ()    
Max Wind Speed 18 mph    
Max Gust Speed -    
Visibility 6.0 miles    
Events Rain    
T = Trace of Precipitation, MM = Missing Value Source: Averaged Metar Reports

Daily Weather History Graph

Daily Weather History Graph

Search for Another Location

Airport or City:

Trip Planner

Search our weather history database for the weather conditions in past years. The results will help you decide how hot, cold, wet, or windy it might be!

Date:

Astronomy

Feb. 09, 2014 Rise Set
Actual Time 5:53 AM AWST 6:45 PM AWST
Civil Twilight 5:30 AM AWST 7:08 PM AWST
Nautical Twilight 5:03 AM AWST 7:35 PM AWST
Astronomical Twilight 4:35 AM AWST 8:03 PM AWST
Moon 2:27 PM AWST 1:01 AM AWST
Length of Visible Light 13h 38m
Length of Day
12h 52m
Waxing Gibbous, 72% of the Moon is Illuminated
Feb 9
Waxing Gibbous
Feb 15
Full
Feb 23
Last Quarter
Mar 1
New
Mar 8
First Quarter

Hourly Weather History & Observations

Time (AWST) Temp. Heat Index Dew Point Humidity Pressure Visibility Wind Dir Wind Speed Gust Speed Precip Events Conditions
12:00 AM 85 °F - 83 °F 92% 29.56 in - West 6.9 mph - -  
12:00 AM 86.0 °F 104.7 °F 82.4 °F 89% 29.53 in 6.2 mi West 6.9 mph - N/A   Unknown
12:30 AM 84.2 °F 100.6 °F 82.4 °F 94% 29.53 in 6.2 mi West 6.9 mph - N/A   Unknown
1:00 AM 84.2 °F 100.6 °F 82.4 °F 94% 29.53 in 5.6 mi West 8.1 mph - N/A   Unknown
1:35 AM 84.2 °F 100.6 °F 82.4 °F 94% 29.50 in 3.7 mi West 12.7 mph - N/A   Unknown
2:00 AM 84 °F - 82 °F 91% 29.50 in - WSW 10.4 mph - -  
2:00 AM 84.2 °F 100.6 °F 82.4 °F 94% 29.50 in - WSW 10.4 mph - N/A   Drizzle
2:30 AM 82.4 °F 94.0 °F 80.6 °F 94% 29.47 in 3.7 mi WSW 4.6 mph - N/A   Unknown
2:52 AM 82.4 °F 94.0 °F 80.6 °F 94% 29.47 in 6.2 mi WSW 5.8 mph - N/A   Unknown
3:00 AM 82 °F - 81 °F 96% 29.50 in 6 mi WSW 5.8 mph - -  
3:00 AM 82.4 °F 94.0 °F 80.6 °F 94% 29.47 in 5.6 mi WSW 5.8 mph - N/A   Unknown
3:33 AM 82.4 °F 94.0 °F 80.6 °F 94% 29.47 in 3.7 mi WSW 6.9 mph - N/A   Unknown
4:00 AM 82.4 °F 94.0 °F 80.6 °F 94% 29.47 in 6.2 mi WSW 2.3 mph - N/A   Unknown
4:30 AM 82.4 °F 94.0 °F 80.6 °F 94% 29.50 in 6.2 mi WSW 2.3 mph - N/A   Unknown
5:00 AM 81 °F - 80 °F 95% 29.52 in - WSW 4.6 mph - -  
5:00 AM 80.6 °F 89.3 °F 80.6 °F 100% 29.50 in 6.2 mi WSW 4.6 mph - N/A   Unknown
5:30 AM 82.4 °F 94.0 °F 80.6 °F 94% 29.50 in 6.2 mi SSW 4.6 mph - N/A   Unknown
6:00 AM 81 °F - 80 °F 96%  in - SSW 4.6 mph - -  
6:00 AM 80.6 °F 89.3 °F 80.6 °F 100% 29.53 in 6.2 mi SSW 4.6 mph - N/A   Unknown
6:30 AM 80.6 °F 89.3 °F 80.6 °F 100% 29.53 in 6.2 mi SSW 5.8 mph - N/A   Unknown
7:00 AM 82.4 °F 96.1 °F 82.4 °F 100% 29.53 in 6.2 mi South 6.9 mph - N/A   Unknown
7:30 AM 84.2 °F 100.6 °F 82.4 °F 94% 29.56 in 6.2 mi South 6.9 mph - N/A   Unknown
8:00 AM 86 °F - 83 °F 90% 29.60 in - ESE 9.2 mph - -  
8:00 AM 86.0 °F 107.7 °F 84.2 °F 94% 29.59 in 6.2 mi ESE 9.2 mph - N/A   Overcast
8:30 AM 87.8 °F 108.2 °F 82.4 °F 84% 29.59 in 6.2 mi ESE 6.9 mph - N/A   Scattered Clouds
9:00 AM 90 °F - 82 °F 70% 29.59 in - East 6.9 mph - -  
9:00 AM 89.6 °F 111.1 °F 82.4 °F 79% 29.59 in 6.2 mi East 6.9 mph - N/A   Unknown
9:30 AM 93.2 °F 110.2 °F 78.8 °F 63% 29.56 in 6.2 mi SE 6.9 mph - N/A   Unknown
10:00 AM 96.8 °F 107.3 °F 73.4 °F 47% 29.56 in 6.2 mi ESE 13.8 mph - N/A   Unknown
10:30 AM 98.6 °F 105.5 °F 69.8 °F 39% 29.56 in 6.2 mi East 13.8 mph - N/A   Unknown
11:00 AM 100 °F - 69 °F 27% 29.56 in - East 12.7 mph - -  
11:00 AM 100.4 °F 107.8 °F 69.8 °F 37% 29.53 in 6.2 mi East 12.7 mph - N/A   Unknown
11:30 AM 100.4 °F 104.9 °F 66.2 °F 33% 29.53 in 6.2 mi ESE 10.4 mph - N/A   Unknown
12:00 PM 102 °F - 67 °F 23% 29.54 in - East 9.2 mph - -  
12:00 PM 102.2 °F 106.9 °F 66.2 °F 31% 29.53 in 6.2 mi East 9.2 mph - N/A   Unknown
12:30 PM 102.2 °F 106.9 °F 66.2 °F 31% 29.53 in 6.2 mi East 12.7 mph - N/A   Unknown
1:00 PM 104.0 °F 107.4 °F 64.4 °F 27% 29.50 in 6.2 mi ESE 13.8 mph - N/A   Unknown
1:30 PM 104.0 °F 107.4 °F 64.4 °F 27% 29.50 in 6.2 mi ESE 13.8 mph - N/A   Unknown
2:00 PM 102 °F - 64 °F 20% 29.50 in - ESE 15.0 mph - -  
2:00 PM 102.2 °F 105.5 °F 64.4 °F 29% 29.50 in 6.2 mi ESE 15.0 mph - N/A   Scattered Clouds
2:30 PM 104.0 °F 107.4 °F 64.4 °F 27% 29.47 in 6.2 mi ESE 11.5 mph - N/A   Scattered Clouds
3:00 PM 104 °F - 63 °F 18% 29.47 in - SSE 13.8 mph - -  
3:00 PM 104.0 °F 106.6 °F 62.6 °F 26% 29.47 in 6.2 mi SSE 13.8 mph - N/A   Unknown
3:30 PM 100.4 °F 107.8 °F 69.8 °F 37% 29.44 in 6.2 mi NNE 15.0 mph - N/A   Scattered Clouds
4:00 PM 98.6 °F 109.2 °F 73.4 °F 44% 29.44 in 6.2 mi NNW 9.2 mph - N/A   Mostly Cloudy
4:30 PM 100.4 °F 111.9 °F 73.4 °F 42% 29.44 in 6.2 mi WNW 10.4 mph - N/A   Scattered Clouds
5:00 PM 100 °F - 77 °F 40% 29.44 in - NW 13.8 mph - -  
5:00 PM 100.4 °F 116.5 °F 77.0 °F 47% 29.42 in 6.2 mi NW 13.8 mph - N/A   Mostly Cloudy
5:30 PM 98.6 °F 111.7 °F 75.2 °F 47% 29.42 in 6.2 mi West 12.7 mph - N/A   Mostly Cloudy
6:00 PM 96 °F - 79 °F 50% 29.45 in - WNW 11.5 mph - -  
6:00 PM 95.0 °F 112.2 °F 78.8 °F 59% 29.44 in 6.2 mi WNW 11.5 mph - N/A   Scattered Clouds
6:30 PM 93.2 °F 110.2 °F 78.8 °F 63% 29.44 in 6.2 mi WNW 12.7 mph - N/A   Mostly Cloudy
7:00 PM 91.4 °F 111.0 °F 80.6 °F 71% 29.47 in 6.2 mi WNW 13.8 mph - N/A   Unknown
7:30 PM 91.4 °F 111.0 °F 80.6 °F 71% 29.47 in 6.2 mi West 12.7 mph - N/A   Mostly Cloudy
8:00 PM 89 °F - 82 °F 75% 29.51 in - North 11.5 mph - -  
8:00 PM 89.6 °F 111.1 °F 82.4 °F 79% 29.50 in 5.6 mi North 11.5 mph - N/A Rain Rain
8:30 PM 87.8 °F 111.7 °F 84.2 °F 89% 29.50 in 6.2 mi West 10.4 mph - N/A   Unknown
9:00 PM 91 °F - 75 °F 50% 29.55 in - ESE 8.1 mph - -  
9:00 PM 91.4 °F 102.5 °F 75.2 °F 59% 29.53 in 6.2 mi ESE 8.1 mph - N/A   Scattered Clouds
9:30 PM 89.6 °F 104.7 °F 78.8 °F 70% 29.56 in 6.2 mi East 12.7 mph - N/A   Unknown
10:00 PM 91.4 °F 114.3 °F 82.4 °F 75% 29.56 in 6.2 mi NNE 18.4 mph - N/A   Unknown
10:30 PM 91.4 °F 100.1 °F 73.4 °F 55% 29.56 in 6.2 mi NE 15.0 mph - N/A   Scattered Clouds
11:00 PM 89 °F - 75 °F 55% 29.56 in - NE 10.4 mph - -  
11:00 PM 89.6 °F 99.8 °F 75.2 °F 62% 29.56 in 6.2 mi NE 10.4 mph - N/A Rain Light Rain Showers
11:30 PM 89.6 °F 98.2 °F 73.4 °F 59% 29.53 in 6.2 mi NNE 8.1 mph - N/A Rain Light Rain Showers